Terminal Aerodrome Forecast
Issued by NWS Sterling, VA

Current Version | Previous Version | Graphics & Text | Print | Product List | Glossary On
Versions: 1 2 3 4 5 6 7 8 9 10 11 12 13 14 15 16 17 18 19 20 21 22
000
FTUS41 KLWX 220500
TAFIAD
TAF
KIAD 220538Z 2206/2312 34010KT P6SM VCSH OVC060
     FM220900 35011G20KT 5SM -RA OVC025
     FM221200 35016G24KT P6SM SCT008 OVC015
     FM222000 34018G27KT P6SM BKN030
     FM230000 33019KT P6SM BKN040
     FM230800 32016G28KT P6SM BKN030=

USA.gov is the U.S. government's official web portal to all federal, state and local government web resources and services.